createdAt,value
2023-02-01T00:01:09.231Z,101904.75
2023-02-01T00:03:36.677Z,101893.47
2023-02-01T00:06:04.166Z,101903.97
2023-02-01T00:08:31.236Z,101897.91
2023-02-01T00:11:16.323Z,101898.81
2023-02-01T00:13:44.309Z,101888.38
2023-02-01T00:16:17.983Z,101881.47
2023-02-01T00:18:52.526Z,101873.69
2023-02-01T00:21:21.997Z,101862.41
2023-02-01T00:23:49.081Z,101849.47
2023-02-01T00:26:37.350Z,101852.16
2023-02-01T00:29:27.069Z,101840.06
2023-02-01T00:31:54.164Z,101842.72
2023-02-01T00:34:21.613Z,101844.53
2023-02-01T00:36:48.972Z,101855.00
2023-02-01T00:39:16.908Z,101865.47
2023-02-01T00:41:44.820Z,101864.63
2023-02-01T00:44:11.802Z,101867.25
2023-02-01T00:46:38.905Z,101864.63
2023-02-01T00:49:08.203Z,101855.94
2023-02-01T00:51:35.736Z,101850.72
2023-02-01T00:54:04.265Z,101853.34
2023-02-01T00:56:32.505Z,101845.53
2023-02-01T00:59:00.255Z,101853.38
2023-02-01T01:01:29.120Z,101857.75
2023-02-01T01:04:00.645Z,101856.00
2023-02-01T01:06:34.451Z,101849.94
2023-02-01T01:09:06.603Z,101851.69
2023-02-01T01:11:37.800Z,101859.50
2023-02-01T01:14:08.748Z,101856.00
2023-02-01T01:16:36.987Z,101845.63
2023-02-01T01:19:04.650Z,101853.50
2023-02-01T01:21:32.335Z,101866.56
2023-02-01T01:23:59.981Z,101854.34
2023-02-01T01:26:30.586Z,101850.00
2023-02-01T01:28:59.793Z,101849.94
2023-02-01T01:31:28.088Z,101830.75
2023-02-01T01:33:58.911Z,101840.28
2023-02-01T01:36:27.852Z,101842.00
2023-02-01T01:38:54.924Z,101841.94
2023-02-01T01:41:31.816Z,101842.75
2023-02-01T01:44:07.235Z,101842.69
2023-02-01T01:46:38.730Z,101850.50
2023-02-01T01:49:18.079Z,101845.25
2023-02-01T01:51:52.232Z,101858.28
2023-02-01T01:54:30.602Z,101854.78
2023-02-01T01:57:04.826Z,101845.19
2023-02-01T01:59:35.943Z,101840.81
2023-02-01T02:02:03.169Z,101840.75
2023-02-01T02:04:31.021Z,101853.72
2023-02-01T02:07:09.086Z,101851.97
2023-02-01T02:09:36.308Z,101845.00
2023-02-01T02:12:03.640Z,101844.16
2023-02-01T02:14:32.443Z,101850.16
2023-02-01T02:17:41.065Z,101842.31
2023-02-01T02:20:50.403Z,101841.44
2023-02-01T02:23:48.543Z,101835.31
2023-02-01T02:26:47.300Z,101819.66
2023-02-01T02:29:43.003Z,101817.03
2023-02-01T02:32:22.189Z,101818.72
2023-02-01T02:35:34.238Z,101817.81
2023-02-01T02:38:32.401Z,101816.88
2023-02-01T02:41:09.553Z,101822.88
2023-02-01T02:44:15.897Z,101815.88
2023-02-01T02:47:10.153Z,101811.50
2023-02-01T02:50:24.923Z,101810.59
2023-02-01T02:53:34.577Z,101821.88
2023-02-01T02:56:25.255Z,101808.91
2023-02-01T02:59:12.737Z,101807.22
2023-02-01T03:02:00.451Z,101809.88
2023-02-01T03:04:27.758Z,101802.03
2023-02-01T03:06:55.540Z,101797.75
2023-02-01T03:09:33.169Z,101804.78
2023-02-01T03:12:28.766Z,101797.03
2023-02-01T03:15:06.699Z,101790.16
2023-02-01T03:17:43.317Z,101791.97
2023-02-01T03:20:14.994Z,101791.97
2023-02-01T03:22:46.193Z,101785.97
2023-02-01T03:25:22.688Z,101792.13
2023-02-01T03:28:03.595Z,101781.75
2023-02-01T03:30:38.126Z,101773.13
2023-02-01T03:33:21.867Z,101769.66
2023-02-01T03:36:34.774Z,101769.59
2023-02-01T03:39:32.054Z,101769.56
2023-02-01T03:42:05.969Z,101757.31
2023-02-01T03:44:42.373Z,101764.28
2023-02-01T03:47:21.118Z,101766.00
2023-02-01T03:49:56.143Z,101762.47
2023-02-01T03:52:50.118Z,101756.34
2023-02-01T03:55:23.921Z,101756.31
2023-02-01T03:58:10.414Z,101751.03
2023-02-01T04:00:37.463Z,101757.97
2023-02-01T04:03:06.831Z,101767.50
2023-02-01T04:05:35.607Z,101775.31
2023-02-01T04:08:06.171Z,101769.25
2023-02-01T04:10:33.322Z,101769.25
2023-02-01T04:13:00.257Z,101778.81
2023-02-01T04:15:27.281Z,101777.00
2023-02-01T04:17:54.289Z,101775.25
2023-02-01T04:20:21.520Z,101787.44
2023-02-01T04:22:48.642Z,101783.06
2023-02-01T04:25:18.264Z,101784.78
2023-02-01T04:27:47.669Z,101794.41
2023-02-01T04:30:15.350Z,101783.97
2023-02-01T04:32:42.576Z,101779.59
2023-02-01T04:35:10.098Z,101785.63
2023-02-01T04:37:37.169Z,101782.97
2023-02-01T04:40:04.817Z,101777.72
2023-02-01T04:42:31.788Z,101768.97
2023-02-01T04:44:58.796Z,101775.00
2023-02-01T04:47:25.695Z,101769.78
2023-02-01T04:49:52.649Z,101781.03
2023-02-01T04:52:19.529Z,101794.03
2023-02-01T04:54:46.510Z,101792.28
2023-02-01T04:57:14.412Z,101787.03
2023-02-01T04:59:41.627Z,101787.94
2023-02-01T05:02:08.575Z,101798.34
2023-02-01T05:04:35.612Z,101793.16
2023-02-01T05:07:02.644Z,101790.66
2023-02-01T05:09:29.622Z,101782.09
2023-02-01T05:12:14.853Z,101777.88
2023-02-01T05:14:41.872Z,101773.66
2023-02-01T05:17:08.891Z,101772.91
2023-02-01T05:19:35.884Z,101773.81
2023-02-01T05:22:02.816Z,101785.31
2023-02-01T05:24:29.767Z,101784.63
2023-02-01T05:26:56.883Z,101785.66
2023-02-01T05:29:24.064Z,101781.44
2023-02-01T05:31:51.353Z,101783.25
2023-02-01T05:34:18.422Z,101770.28
2023-02-01T05:36:45.459Z,101776.41
2023-02-01T05:39:12.645Z,101766.03
2023-02-01T05:41:39.679Z,101752.16
2023-02-01T05:44:09.983Z,101759.19
2023-02-01T05:46:37.321Z,101759.22
2023-02-01T05:49:05.775Z,101759.22
2023-02-01T05:51:32.782Z,101777.56
2023-02-01T05:53:59.700Z,101770.72
2023-02-01T05:56:27.613Z,101771.66
2023-02-01T05:58:54.557Z,101771.69
2023-02-01T06:01:21.546Z,101767.34
2023-02-01T06:03:48.616Z,101767.38
2023-02-01T06:06:15.826Z,101783.94
2023-02-01T06:08:42.836Z,101783.09
2023-02-01T06:11:10.957Z,101778.72
2023-02-01T06:13:40.420Z,101785.72
2023-02-01T06:16:08.590Z,101783.97
2023-02-01T06:18:36.649Z,101778.75
2023-02-01T06:21:04.020Z,101773.53
2023-02-01T06:23:32.111Z,101774.41
2023-02-01T06:26:01.709Z,101770.06
2023-02-01T06:28:30.426Z,101776.16
2023-02-01T06:30:59.084Z,101781.34
2023-02-01T06:33:26.713Z,101783.97
2023-02-01T06:36:02.956Z,101777.00
2023-02-01T06:38:31.040Z,101784.84
2023-02-01T06:40:59.075Z,101789.16
2023-02-01T06:43:28.304Z,101797.81
2023-02-01T06:46:02.494Z,101792.53
2023-02-01T06:48:29.928Z,101795.94
2023-02-01T06:50:57.500Z,101794.16
2023-02-01T06:53:24.855Z,101789.75
2023-02-01T06:56:01.152Z,101788.91
2023-02-01T06:58:33.986Z,101794.97
2023-02-01T07:01:09.399Z,101791.47
2023-02-01T07:03:37.268Z,101797.59
2023-02-01T07:06:05.680Z,101796.75
2023-02-01T07:08:35.547Z,101794.13
2023-02-01T07:11:15.531Z,101794.97
2023-02-01T07:13:42.581Z,101789.75
2023-02-01T07:16:16.735Z,101792.41
2023-02-01T07:18:44.003Z,101797.63
2023-02-01T07:21:11.499Z,101797.63
2023-02-01T07:23:39.298Z,101789.81
2023-02-01T07:26:08.728Z,101790.75
2023-02-01T07:28:37.282Z,101800.34
2023-02-01T07:31:19.242Z,101796.88
2023-02-01T07:33:46.628Z,101797.75
2023-02-01T07:36:17.499Z,101801.22
2023-02-01T07:38:44.937Z,101803.84
2023-02-01T07:41:12.205Z,101797.75
2023-02-01T07:43:39.343Z,101796.88
2023-02-01T07:46:07.226Z,101799.50
2023-02-01T07:48:35.130Z,101801.25
2023-02-01T07:51:10.783Z,101805.63
2023-02-01T07:53:38.402Z,101800.41
2023-02-01T07:56:16.184Z,101803.88
2023-02-01T07:58:44.037Z,101805.63
2023-02-01T08:01:26.849Z,101792.59
2023-02-01T08:04:01.856Z,101796.06
2023-02-01T08:06:32.937Z,101796.94
2023-02-01T08:08:59.901Z,101800.44
2023-02-01T08:11:27.658Z,101796.13
2023-02-01T08:13:55.345Z,101810.09
2023-02-01T08:16:24.809Z,101807.50
2023-02-01T08:18:53.268Z,101822.31
2023-02-01T08:21:37.787Z,101816.22
2023-02-01T08:24:09.198Z,101823.22
2023-02-01T08:26:36.779Z,101820.63
2023-02-01T08:29:07.818Z,101831.16
2023-02-01T08:31:35.146Z,101828.56
2023-02-01T08:34:06.891Z,101839.94
2023-02-01T08:36:33.962Z,101838.22
2023-02-01T08:39:02.096Z,101830.41
2023-02-01T08:41:31.407Z,101830.47
2023-02-01T08:43:59.070Z,101827.84
2023-02-01T08:46:26.695Z,101827.84
2023-02-01T08:48:53.814Z,101820.84
2023-02-01T08:51:23.601Z,101816.50
2023-02-01T08:53:51.969Z,101814.72
2023-02-01T08:56:20.490Z,101819.94
2023-02-01T08:58:47.719Z,101816.41
2023-02-01T09:01:17.943Z,101812.03
2023-02-01T09:03:45.520Z,101810.28
2023-02-01T09:06:15.489Z,101809.47
2023-02-01T09:08:42.793Z,101807.75
2023-02-01T09:11:16.361Z,101808.66
2023-02-01T09:13:43.755Z,101811.28
2023-02-01T09:16:10.971Z,101810.44
2023-02-01T09:18:46.034Z,101802.63
2023-02-01T09:21:23.533Z,101786.06
2023-02-01T09:23:52.679Z,101778.19
2023-02-01T09:26:22.880Z,101788.66
2023-02-01T09:28:53.391Z,101792.19
2023-02-01T09:31:20.876Z,101783.44
2023-02-01T09:33:48.042Z,101778.22
2023-02-01T09:36:15.052Z,101790.47
2023-02-01T09:38:52.459Z,101790.47
2023-02-01T09:42:11.789Z,101794.84
2023-02-01T09:45:16.512Z,101793.09
2023-02-01T09:47:54.408Z,101779.97
2023-02-01T09:50:38.390Z,101781.72
2023-02-01T09:53:37.321Z,101779.09
2023-02-01T09:56:28.667Z,101785.22
2023-02-01T09:59:24.639Z,101778.16
2023-02-01T10:01:51.975Z,101773.81
2023-02-01T10:04:19.597Z,101787.78
2023-02-01T10:07:17.312Z,101786.00
2023-02-01T10:10:22.103Z,101786.84
2023-02-01T10:13:23.238Z,101789.44
2023-02-01T10:16:11.072Z,101792.06
2023-02-01T10:18:57.879Z,101799.94
2023-02-01T10:21:45.739Z,101796.38
2023-02-01T10:24:30.330Z,101801.56
2023-02-01T10:27:08.835Z,101798.94
2023-02-01T10:29:41.958Z,101805.09
2023-02-01T10:32:20.879Z,101808.63
2023-02-01T10:35:06.081Z,101796.41
2023-02-01T10:37:35.539Z,101796.44
2023-02-01T10:40:24.791Z,101793.88
2023-02-01T10:43:02.872Z,101792.13
2023-02-01T10:45:34.086Z,101800.88
2023-02-01T10:48:05.129Z,101789.53
2023-02-01T10:50:43.105Z,101783.41
2023-02-01T10:53:22.876Z,101786.91
2023-02-01T10:55:55.403Z,101768.53
2023-02-01T10:58:32.773Z,101762.41
2023-02-01T11:01:07.788Z,101764.19
2023-02-01T11:04:03.077Z,101792.19
2023-02-01T11:06:34.826Z,101758.97
2023-02-01T11:09:13.939Z,101759.81
2023-02-01T11:11:49.712Z,101752.81
2023-02-01T11:14:38.071Z,101749.34
2023-02-01T11:17:20.324Z,101757.19
2023-02-01T11:20:26.172Z,101754.56
2023-02-01T11:22:57.755Z,101757.22
2023-02-01T11:25:26.876Z,101757.22
2023-02-01T11:27:57.656Z,101754.59
2023-02-01T11:30:44.204Z,101745.00
2023-02-01T11:33:19.652Z,101745.88
2023-02-01T11:35:49.933Z,101715.25
2023-02-01T11:38:37.401Z,101754.59
2023-02-01T11:41:28.659Z,101738.00
2023-02-01T11:44:01.661Z,101728.38
2023-02-01T11:46:35.265Z,101713.50
2023-02-01T11:49:21.455Z,101730.97
2023-02-01T11:52:11.654Z,101720.47
2023-02-01T11:55:16.003Z,101714.34
2023-02-01T11:58:07.684Z,101720.47
2023-02-01T12:01:07.261Z,101713.44
2023-02-01T12:04:05.033Z,101702.91
2023-02-01T12:06:54.811Z,101713.38
2023-02-01T12:10:05.358Z,101734.41
2023-02-01T12:12:45.196Z,101717.81
2023-02-01T12:16:06.212Z,101737.09
2023-02-01T12:19:03.886Z,101723.13
2023-02-01T12:22:01.081Z,101727.53
2023-02-01T12:24:59.066Z,101718.81
2023-02-01T12:28:06.429Z,101713.56
2023-02-01T12:31:25.081Z,101723.19
2023-02-01T12:34:21.929Z,101714.44
2023-02-01T12:37:34.866Z,101725.78
2023-02-01T12:40:37.521Z,101715.28
2023-02-01T12:43:29.808Z,101710.91
2023-02-01T12:46:07.197Z,101710.91
2023-02-01T12:48:44.034Z,101716.13
2023-02-01T12:51:37.677Z,101735.34
2023-02-01T12:55:12.545Z,101702.13
2023-02-01T12:57:50.404Z,101711.72
2023-02-01T13:00:32.696Z,101713.47
2023-02-01T13:03:50.771Z,101687.22
2023-02-01T13:06:25.341Z,101689.84
2023-02-01T13:09:10.735Z,101688.97
2023-02-01T13:11:46.511Z,101684.53
2023-02-01T13:14:39.893Z,101691.50
2023-02-01T13:17:16.494Z,101694.94
2023-02-01T13:19:53.512Z,101671.28
2023-02-01T13:22:34.054Z,101679.09
2023-02-01T13:25:14.268Z,101685.19
2023-02-01T13:27:41.611Z,101686.94
2023-02-01T13:30:31.380Z,101685.19
2023-02-01T13:33:56.585Z,101672.06
2023-02-01T13:36:52.206Z,101690.41
2023-02-01T13:39:47.273Z,101691.25
2023-02-01T13:42:23.709Z,101674.59
2023-02-01T13:45:02.141Z,101710.47
2023-02-01T13:47:35.081Z,101703.50
2023-02-01T13:50:25.619Z,101689.53
2023-02-01T13:53:17.891Z,101691.28
2023-02-01T13:55:48.531Z,101693.06
2023-02-01T13:58:32.035Z,101693.06
2023-02-01T14:01:23.975Z,101727.19
2023-02-01T14:03:55.219Z,101696.59
2023-02-01T14:06:28.670Z,101707.13
2023-02-01T14:09:12.563Z,101717.63
2023-02-01T14:11:58.737Z,101706.31
2023-02-01T14:14:25.885Z,101701.03
2023-02-01T14:16:55.913Z,101722.94
2023-02-01T14:19:32.695Z,101711.53
2023-02-01T14:22:02.505Z,101726.41
2023-02-01T14:24:37.413Z,101742.16
2023-02-01T14:27:24.083Z,101701.94
2023-02-01T14:30:00.511Z,101718.56
2023-02-01T14:32:35.646Z,101695.78
2023-02-01T14:35:08.814Z,101720.34
2023-02-01T14:37:40.082Z,101724.72
2023-02-01T14:40:24.337Z,101724.72
2023-02-01T14:42:54.050Z,101736.97
2023-02-01T14:45:24.675Z,101729.09
2023-02-01T14:48:15.929Z,101748.34
2023-02-01T14:50:49.354Z,101719.47
2023-02-01T14:53:34.264Z,101748.34
2023-02-01T14:56:07.641Z,101729.09
2023-02-01T14:58:54.834Z,101721.22
2023-02-01T15:01:32.068Z,101737.84
2023-02-01T15:04:13.186Z,101723.84
2023-02-01T15:06:53.289Z,101728.22
2023-02-01T15:09:30.105Z,101726.47
2023-02-01T15:12:07.010Z,101723.88
2023-02-01T15:14:39.296Z,101719.50
2023-02-01T15:17:38.511Z,101726.50
2023-02-01T15:20:17.123Z,101723.00
2023-02-01T15:23:05.797Z,101736.09
2023-02-01T15:25:37.800Z,101723.00
2023-02-01T15:28:07.033Z,101722.19
2023-02-01T15:30:36.360Z,101719.53
2023-02-01T15:33:19.083Z,101730.06
2023-02-01T15:35:48.984Z,101725.69
2023-02-01T15:38:27.445Z,101731.81
2023-02-01T15:41:14.242Z,101736.22
2023-02-01T15:43:57.170Z,101736.25
2023-02-01T15:46:34.749Z,101737.13
2023-02-01T15:49:01.942Z,101739.75
2023-02-01T15:51:33.635Z,101731.88
2023-02-01T15:54:09.034Z,101734.50
2023-02-01T15:56:42.361Z,101741.50
2023-02-01T15:59:20.075Z,101744.13
2023-02-01T16:01:48.565Z,101744.13
2023-02-01T16:04:25.167Z,101757.25
2023-02-01T16:06:54.303Z,101749.38
2023-02-01T16:09:40.235Z,101761.59
2023-02-01T16:12:39.093Z,101765.94
2023-02-01T16:15:07.305Z,101766.81
2023-02-01T16:17:34.283Z,101765.94
2023-02-01T16:20:01.253Z,101748.47
2023-02-01T16:22:28.260Z,101766.81
2023-02-01T16:24:55.480Z,101771.19
2023-02-01T16:27:23.243Z,101786.06
2023-02-01T16:29:50.940Z,101765.06
2023-02-01T16:32:22.427Z,101776.44
2023-02-01T16:34:49.905Z,101772.06
2023-02-01T16:37:22.762Z,101768.56
2023-02-01T16:39:50.176Z,101785.19
2023-02-01T16:42:17.996Z,101774.69
2023-02-01T16:44:45.043Z,101775.56
2023-02-01T16:47:23.620Z,101800.03
2023-02-01T16:49:51.230Z,101793.03
2023-02-01T16:52:25.152Z,101794.78
2023-02-01T16:54:52.401Z,101793.03
2023-02-01T16:57:24.422Z,101795.66
2023-02-01T16:59:52.139Z,101792.16
2023-02-01T17:02:20.982Z,101797.38
2023-02-01T17:04:49.622Z,101809.63
2023-02-01T17:07:19.708Z,101813.13
2023-02-01T17:09:48.337Z,101793.88
2023-02-01T17:12:27.140Z,101807.88
2023-02-01T17:14:54.350Z,101801.75
2023-02-01T17:17:32.765Z,101821.00
2023-02-01T17:20:06.923Z,101802.63
2023-02-01T17:22:34.091Z,101813.13
2023-02-01T17:25:01.051Z,101811.38
2023-02-01T17:27:30.276Z,101819.28
2023-02-01T17:29:57.355Z,101807.00
2023-02-01T17:32:26.565Z,101797.38
2023-02-01T17:34:53.627Z,101818.41
2023-02-01T17:37:31.972Z,101805.25
2023-02-01T17:39:59.632Z,101801.78
2023-02-01T17:42:30.051Z,101811.41
2023-02-01T17:45:02.756Z,101798.28
2023-02-01T17:47:29.763Z,101806.16
2023-02-01T17:49:57.289Z,101814.00
2023-02-01T17:52:26.216Z,101814.00
2023-02-01T17:54:54.187Z,101820.13
2023-02-01T17:57:21.904Z,101828.00
2023-02-01T17:59:49.205Z,101831.50
2023-02-01T18:02:25.164Z,101843.75
2023-02-01T18:04:52.668Z,101827.13
2023-02-01T18:07:19.731Z,101826.25
2023-02-01T18:09:46.773Z,101830.63
2023-02-01T18:12:26.770Z,101835.03
2023-02-01T18:14:53.727Z,101822.75
2023-02-01T18:17:20.903Z,101823.63
2023-02-01T18:19:47.913Z,101832.38
2023-02-01T18:22:23.069Z,101821.88
2023-02-01T18:24:50.006Z,101816.66
2023-02-01T18:27:16.981Z,101818.38
2023-02-01T18:29:43.943Z,101821.00
2023-02-01T18:32:11.012Z,101831.50
2023-02-01T18:34:38.087Z,101821.00
2023-02-01T18:37:05.011Z,101814.03
2023-02-01T18:39:32.143Z,101809.66
2023-02-01T18:41:59.415Z,101828.84
2023-02-01T18:44:26.441Z,101810.50
2023-02-01T18:46:53.400Z,101814.88
2023-02-01T18:49:20.382Z,101793.88
2023-02-01T18:51:47.446Z,101800.88
2023-02-01T18:54:14.581Z,101819.25
2023-02-01T18:56:42.897Z,101801.75
2023-02-01T18:59:11.766Z,101806.09
2023-02-01T19:01:38.936Z,101802.63
2023-02-01T19:04:15.770Z,101815.72
2023-02-01T19:06:44.535Z,101813.97
2023-02-01T19:09:11.483Z,101812.25
2023-02-01T19:11:38.397Z,101810.47
2023-02-01T19:14:05.475Z,101823.59
2023-02-01T19:16:33.931Z,101815.72
2023-02-01T19:19:00.930Z,101822.72
2023-02-01T19:21:27.898Z,101801.72
2023-02-01T19:23:54.898Z,101820.97
2023-02-01T19:26:22.431Z,101822.72
2023-02-01T19:28:49.474Z,101820.06
2023-02-01T19:31:17.675Z,101827.94
2023-02-01T19:33:44.932Z,101822.72
2023-02-01T19:36:11.943Z,101824.47
2023-02-01T19:38:40.702Z,101820.09
2023-02-01T19:41:07.720Z,101830.59
2023-02-01T19:43:36.672Z,101822.72
2023-02-01T19:46:03.805Z,101827.97
2023-02-01T19:48:31.754Z,101814.84
2023-02-01T19:50:59.413Z,101817.44
2023-02-01T19:53:27.997Z,101823.63
2023-02-01T19:55:57.300Z,101814.84
2023-02-01T19:58:26.138Z,101819.25
2023-02-01T20:00:57.932Z,101834.09
2023-02-01T20:03:25.745Z,101821.88
2023-02-01T20:05:55.146Z,101814.03
2023-02-01T20:08:25.589Z,101812.25
2023-02-01T20:10:53.045Z,101817.50
2023-02-01T20:13:21.392Z,101819.28
2023-02-01T20:15:48.352Z,101828.84
2023-02-01T20:18:15.307Z,101817.47
2023-02-01T20:20:42.676Z,101818.38
2023-02-01T20:23:09.910Z,101834.13
2023-02-01T20:25:38.828Z,101844.59
2023-02-01T20:28:05.821Z,101843.69
2023-02-01T20:30:33.370Z,101841.94
2023-02-01T20:33:00.392Z,101837.59
2023-02-01T20:35:28.648Z,101853.34
2023-02-01T20:37:57.135Z,101848.94
2023-02-01T20:40:25.133Z,101839.31
2023-02-01T20:42:52.121Z,101855.06
2023-02-01T20:45:19.022Z,101862.06
2023-02-01T20:47:52.832Z,101849.81
2023-02-01T20:50:20.038Z,101842.81
2023-02-01T20:52:47.287Z,101847.19
2023-02-01T20:55:14.326Z,101841.06
2023-02-01T20:57:42.078Z,101853.31
2023-02-01T21:00:10.308Z,101859.44
2023-02-01T21:02:37.595Z,101855.94
2023-02-01T21:05:05.031Z,101855.94
2023-02-01T21:07:31.994Z,101866.41
2023-02-01T21:09:58.926Z,101875.16
2023-02-01T21:12:25.907Z,101890.94
2023-02-01T21:14:55.220Z,101876.94
2023-02-01T21:17:23.164Z,101873.41
2023-02-01T21:19:50.140Z,101871.69
2023-02-01T21:22:17.097Z,101880.41
2023-02-01T21:24:44.351Z,101878.66
2023-02-01T21:27:12.095Z,101881.28
2023-02-01T21:29:39.370Z,101890.03
2023-02-01T21:32:08.510Z,101883.91
2023-02-01T21:34:36.233Z,101878.66
2023-02-01T21:37:03.721Z,101875.16
2023-02-01T21:39:30.795Z,101868.16
2023-02-01T21:45:09.573Z,101883.94
2023-02-01T21:47:36.604Z,101901.41
2023-02-01T21:50:14.753Z,101892.66
2023-02-01T21:52:41.865Z,101911.03
2023-02-01T21:55:09.770Z,101906.66
2023-02-01T21:57:37.227Z,101897.91
2023-02-01T22:00:12.911Z,101900.56
2023-02-01T22:02:40.412Z,101910.19
2023-02-01T22:05:07.842Z,101915.44
2023-02-01T22:07:36.160Z,101906.69
2023-02-01T22:10:04.401Z,101911.06
2023-02-01T22:12:31.356Z,101916.31
2023-02-01T22:14:58.331Z,101918.94
2023-02-01T22:17:25.286Z,101926.81
2023-02-01T22:19:52.311Z,101925.94
2023-02-01T22:22:19.248Z,101932.09
2023-02-01T22:24:46.242Z,101930.34
2023-02-01T22:27:14.684Z,101934.69
2023-02-01T22:29:43.490Z,101942.56
2023-02-01T22:32:13.241Z,101941.69
2023-02-01T22:34:40.850Z,101944.34
2023-02-01T22:37:07.926Z,101943.44
2023-02-01T22:39:35.080Z,101949.56
2023-02-01T22:42:01.951Z,101932.09
2023-02-01T22:44:28.875Z,101943.44
2023-02-01T22:46:55.831Z,101936.47
2023-02-01T22:49:22.974Z,101932.97
2023-02-01T22:51:51.942Z,101925.09
2023-02-01T22:54:21.498Z,101929.47
2023-02-01T22:56:49.517Z,101941.72
2023-02-01T22:59:17.228Z,101927.72
2023-02-01T23:01:44.970Z,101939.09
2023-02-01T23:04:14.959Z,101937.34
2023-02-01T23:06:42.512Z,101943.47
2023-02-01T23:09:19.839Z,101961.81
2023-02-01T23:11:47.384Z,101941.72
2023-02-01T23:14:16.407Z,101941.72
2023-02-01T23:16:49.572Z,101944.31
2023-02-01T23:19:18.500Z,101945.22
2023-02-01T23:21:45.617Z,101953.94
2023-02-01T23:24:13.072Z,101947.84
2023-02-01T23:26:42.403Z,101960.94
2023-02-01T23:29:17.794Z,101970.56
2023-02-01T23:31:45.071Z,101971.41
2023-02-01T23:34:12.359Z,101973.16
2023-02-01T23:36:39.339Z,101977.53
2023-02-01T23:39:06.656Z,101969.66
2023-02-01T23:41:33.678Z,101972.25
2023-02-01T23:44:01.133Z,101966.09
2023-02-01T23:46:38.716Z,101974.81
2023-02-01T23:49:10.182Z,101978.34
2023-02-01T23:51:37.366Z,101971.31
2023-02-01T23:54:05.994Z,101973.94
2023-02-01T23:56:38.584Z,101969.53
2023-02-01T23:59:16.935Z,101966.91
